Huvudsida
METAR-TAF:

METAR-TAF

Flygplatser :

Dusjanbes internationella flygplats

Dusjanbe, Tadzjikistan

latitud: 38-33N, longitud: 068-47E, höjd: 803 m

Aktuellt väderrapport

Denna rapport gjordes för 18 minuter sedan, klockan 23:30 UTC
Vind 2 kt från ost
Temperatur 25°C
Fuktighet 36%
Tryck 1000 hPa
Sikt 10 km eller mer

METAR: UTDD 222330Z 09001MPS 9999 NSC 25/09 Q1000 R09/CLRD// NOSIG RMK QFE683/0911

Tid: 04:48 (23:48 UTC)

Väderprognos

Denna rapport gjordes för 2 timmar och 48 minuter sedan, klockan 21:00 UTC
Prognos gäller från 22 kl. 22 UTC till 23 kl. 10 UTC
Vind 4 kt varierande vindriktning
Sikt: 6000 m
Få moln på en höjd av 6600 ft
Spridda moln på en höjd av 15000 ft

TAF: UTDD 222100Z 2222/2310 VRB02MPS 6000 FEW066 SCT150

Aktuella väderrapporter och prognoser från 4000 flygplatser (METAR- och TAF-rapporter).

De tillgängliga stationerna syns som gula och röda prickar på kartan.

För musen över prickarna för att se namnen på stationerna.

Klicka sedan för att få väderrapporter och prognoser.

För att ändra kartan: Klicka på de gröna knapparna med ett svart kors på för att zooma in; den gröna knappen med ett streck på för att zooma ut; eller på de gröna pilarna för angränsande kartor.


METAR-TAF: